createdAt,value
2023-01-19T00:01:49.039Z,34.05
2023-01-19T00:04:18.289Z,32.25
2023-01-19T00:06:47.922Z,28.67
2023-01-19T00:09:17.239Z,34.83
2023-01-19T00:11:46.559Z,28.38
2023-01-19T00:14:16.157Z,34.60
2023-01-19T00:16:45.381Z,32.53
2023-01-19T00:19:15.019Z,34.35
2023-01-19T00:21:44.250Z,34.08
2023-01-19T00:24:14.346Z,33.15
2023-01-19T00:26:43.644Z,36.13
2023-01-19T00:29:13.597Z,37.25
2023-01-19T00:31:43.039Z,34.53
2023-01-19T00:34:12.379Z,35.00
2023-01-19T00:36:41.575Z,28.98
2023-01-19T00:39:11.025Z,30.02
2023-01-19T00:41:58.351Z,29.95
2023-01-19T00:44:27.599Z,27.10
2023-01-19T00:46:56.826Z,32.65
2023-01-19T00:49:26.204Z,23.22
2023-01-19T00:51:55.413Z,23.67
2023-01-19T00:54:26.887Z,26.20
2023-01-19T00:56:55.697Z,24.95
2023-01-19T00:59:25.926Z,22.10
2023-01-19T01:01:55.387Z,23.07
2023-01-19T01:04:24.899Z,18.20
2023-01-19T01:06:54.093Z,20.45
2023-01-19T01:09:24.352Z,21.95
2023-01-19T01:11:53.541Z,23.40
2023-01-19T01:14:23.744Z,17.10
2023-01-19T01:16:53.120Z,14.38
2023-01-19T01:19:22.432Z,14.83
2023-01-19T01:21:51.892Z,10.18
2023-01-19T01:24:21.109Z,5.75
2023-01-19T01:26:50.519Z,2.58
2023-01-19T01:29:19.746Z,2.33
2023-01-19T01:31:48.978Z,3.02
2023-01-19T01:34:18.255Z,2.77
2023-01-19T01:36:48.132Z,2.02
2023-01-19T01:39:17.338Z,2.47
2023-01-19T01:41:46.777Z,2.98
2023-01-19T01:44:51.684Z,4.05
2023-01-19T01:47:26.669Z,5.22
2023-01-19T01:50:05.152Z,3.72
2023-01-19T01:52:36.317Z,5.50
2023-01-19T01:55:08.517Z,5.97
2023-01-19T01:57:40.700Z,9.88
2023-01-19T02:00:11.189Z,4.00
2023-01-19T02:02:54.487Z,9.60
2023-01-19T02:05:33.803Z,6.67
2023-01-19T02:08:36.193Z,5.92
2023-01-19T02:11:24.451Z,8.73
2023-01-19T02:13:54.220Z,6.17
2023-01-19T02:16:23.734Z,7.87
2023-01-19T02:18:53.159Z,12.07
2023-01-19T02:21:31.705Z,9.45
2023-01-19T02:24:03.412Z,5.58
2023-01-19T02:26:40.797Z,8.48
2023-01-19T02:29:12.791Z,7.30
2023-01-19T02:31:43.218Z,6.30
2023-01-19T02:34:15.339Z,10.80
2023-01-19T02:36:53.926Z,5.83
2023-01-19T02:39:29.062Z,5.65
2023-01-19T02:42:10.789Z,5.33
2023-01-19T02:44:41.441Z,5.00
2023-01-19T02:47:10.703Z,2.90
2023-01-19T02:49:40.299Z,5.92
2023-01-19T02:52:17.149Z,2.17
2023-01-19T02:55:01.475Z,2.00
2023-01-19T02:57:36.455Z,3.95
2023-01-19T03:00:15.352Z,3.42
2023-01-19T03:02:53.685Z,2.35
2023-01-19T03:05:44.370Z,4.85
2023-01-19T03:08:19.757Z,3.70
2023-01-19T03:11:06.930Z,1.57
2023-01-19T03:13:48.432Z,2.92
2023-01-19T03:16:27.498Z,3.62
2023-01-19T03:19:08.392Z,3.08
2023-01-19T03:21:39.142Z,2.75
2023-01-19T03:24:09.607Z,4.47
2023-01-19T03:26:45.002Z,1.42
2023-01-19T03:29:15.399Z,2.08
2023-01-19T03:31:46.888Z,3.60
2023-01-19T03:34:16.777Z,3.07
2023-01-19T03:36:48.674Z,5.35
2023-01-19T03:39:21.430Z,2.15
2023-01-19T03:41:58.801Z,2.95
2023-01-19T03:44:29.951Z,1.25
2023-01-19T03:47:00.330Z,2.15
2023-01-19T03:49:33.858Z,4.75
2023-01-19T03:52:03.060Z,3.30
2023-01-19T03:54:33.011Z,4.33
2023-01-19T03:57:02.230Z,3.70
2023-01-19T03:59:31.457Z,2.92
2023-01-19T04:02:01.040Z,4.17
2023-01-19T04:04:30.338Z,3.15
2023-01-19T04:06:59.561Z,5.47
2023-01-19T04:09:29.314Z,3.42
2023-01-19T04:11:58.543Z,2.90
2023-01-19T04:14:27.947Z,4.15
2023-01-19T04:16:57.175Z,6.33
2023-01-19T04:19:26.747Z,5.65
2023-01-19T04:21:56.851Z,2.98
2023-01-19T04:24:28.037Z,3.98
2023-01-19T04:26:57.357Z,5.58
2023-01-19T04:29:26.565Z,6.97
2023-01-19T04:31:55.783Z,3.95
2023-01-19T04:34:25.345Z,5.30
2023-01-19T04:36:55.967Z,5.28
2023-01-19T04:39:25.310Z,5.20
2023-01-19T04:41:56.286Z,3.60
2023-01-19T04:44:25.636Z,6.30
2023-01-19T04:46:55.027Z,5.17
2023-01-19T04:49:24.460Z,2.80
2023-01-19T04:51:56.677Z,7.90
2023-01-19T04:54:27.632Z,12.75
2023-01-19T04:56:57.303Z,10.78
2023-01-19T04:59:26.717Z,12.93
2023-01-19T05:01:56.793Z,10.95
2023-01-19T05:04:26.444Z,12.00
2023-01-19T05:06:56.103Z,11.50
2023-01-19T05:09:26.200Z,8.50
2023-01-19T05:11:55.438Z,7.62
2023-01-19T05:14:24.702Z,8.60
2023-01-19T05:16:54.280Z,6.75
2023-01-19T05:19:23.942Z,10.23
2023-01-19T05:21:54.801Z,7.53
2023-01-19T05:24:24.165Z,4.28
2023-01-19T05:26:53.353Z,7.17
2023-01-19T05:29:23.533Z,7.47
2023-01-19T05:31:52.790Z,8.90
2023-01-19T05:34:22.412Z,8.83
2023-01-19T05:36:51.616Z,4.60
2023-01-19T05:39:21.127Z,6.37
2023-01-19T05:41:50.317Z,6.12
2023-01-19T05:44:19.759Z,9.28
2023-01-19T05:46:49.401Z,8.30
2023-01-19T05:49:18.699Z,4.12
2023-01-19T05:51:48.049Z,4.85
2023-01-19T05:54:17.501Z,8.70
2023-01-19T05:56:47.597Z,4.28
2023-01-19T05:59:18.823Z,7.03
2023-01-19T06:01:48.606Z,7.75
2023-01-19T06:04:17.908Z,7.87
2023-01-19T06:06:50.623Z,10.90
2023-01-19T06:09:19.847Z,10.53
2023-01-19T06:11:49.997Z,11.93
2023-01-19T06:14:19.236Z,16.32
2023-01-19T06:16:48.506Z,15.72
2023-01-19T06:19:17.743Z,17.80
2023-01-19T06:21:51.099Z,20.82
2023-01-19T06:24:20.313Z,18.05
2023-01-19T06:26:49.540Z,22.93
2023-01-19T06:29:19.035Z,22.00
2023-01-19T06:31:48.497Z,21.90
2023-01-19T06:34:18.211Z,21.37
2023-01-19T06:36:47.879Z,23.32
2023-01-19T06:39:17.500Z,20.68
2023-01-19T06:41:47.313Z,19.77
2023-01-19T06:44:17.002Z,25.52
2023-01-19T06:46:46.429Z,24.57
2023-01-19T06:49:15.912Z,27.73
2023-01-19T06:51:45.513Z,29.00
2023-01-19T06:54:15.039Z,29.40
2023-01-19T06:56:44.265Z,28.95
2023-01-19T06:59:13.517Z,31.10
2023-01-19T07:01:42.902Z,25.57
2023-01-19T07:04:14.271Z,38.45
2023-01-19T07:06:43.872Z,27.32
2023-01-19T07:09:15.050Z,34.40
2023-01-19T07:11:44.244Z,31.30
2023-01-19T07:14:13.876Z,36.15
2023-01-19T07:16:43.221Z,30.75
2023-01-19T07:19:14.237Z,40.12
2023-01-19T07:21:43.767Z,34.35
2023-01-19T07:24:13.498Z,33.83
2023-01-19T07:26:44.678Z,37.30
2023-01-19T07:29:13.975Z,28.00
2023-01-19T07:31:43.429Z,31.52
2023-01-19T07:34:12.804Z,28.57
2023-01-19T07:36:42.706Z,37.95
2023-01-19T07:39:11.947Z,31.55
2023-01-19T07:41:41.446Z,31.62
2023-01-19T07:44:10.934Z,32.53
2023-01-19T07:46:41.540Z,25.75
2023-01-19T07:49:11.590Z,29.35
2023-01-19T07:51:41.129Z,29.98
2023-01-19T07:54:10.627Z,28.65
2023-01-19T07:56:40.575Z,23.87
2023-01-19T07:59:11.099Z,25.52
2023-01-19T08:01:41.738Z,27.02
2023-01-19T08:04:11.301Z,30.50
2023-01-19T08:06:41.698Z,21.42
2023-01-19T08:09:11.751Z,26.17
2023-01-19T08:11:41.976Z,19.42
2023-01-19T08:14:11.830Z,20.25
2023-01-19T08:16:41.425Z,26.42
2023-01-19T08:19:10.643Z,27.00
2023-01-19T08:21:40.548Z,17.77
2023-01-19T08:24:12.259Z,24.27
2023-01-19T08:26:41.878Z,24.20
2023-01-19T08:29:11.155Z,18.35
2023-01-19T08:31:40.627Z,17.52
2023-01-19T08:34:10.011Z,18.07
2023-01-19T08:36:39.261Z,20.20
2023-01-19T08:39:08.595Z,24.72
2023-01-19T08:41:37.911Z,19.35
2023-01-19T08:44:07.216Z,22.10
2023-01-19T08:46:36.508Z,28.57
2023-01-19T08:49:05.990Z,25.08
2023-01-19T08:51:35.214Z,20.80
2023-01-19T08:54:04.515Z,26.00
2023-01-19T08:56:33.820Z,26.70
2023-01-19T08:59:09.997Z,23.35
2023-01-19T09:01:34.185Z,36.25
2023-01-19T09:04:03.674Z,27.15
2023-01-19T09:06:33.005Z,24.90
2023-01-19T09:09:02.203Z,27.15
2023-01-19T09:11:31.887Z,27.05
2023-01-19T09:14:01.099Z,23.35
2023-01-19T09:16:30.478Z,23.22
2023-01-19T09:18:59.699Z,34.63
2023-01-19T09:21:29.404Z,24.98
2023-01-19T09:23:58.689Z,29.07
2023-01-19T09:26:28.310Z,28.42
2023-01-19T09:28:58.006Z,25.85
2023-01-19T09:31:27.683Z,29.63
2023-01-19T09:33:56.941Z,34.18
2023-01-19T09:36:26.466Z,29.67
2023-01-19T09:38:55.691Z,33.55
2023-01-19T09:41:26.588Z,27.22
2023-01-19T09:44:01.068Z,32.28
2023-01-19T09:46:37.129Z,28.00
2023-01-19T09:49:31.134Z,24.37
2023-01-19T09:52:00.440Z,32.55
2023-01-19T09:54:34.727Z,19.10
2023-01-19T09:57:04.158Z,18.25
2023-01-19T09:59:34.556Z,21.42
2023-01-19T10:02:24.713Z,19.60
2023-01-19T10:04:57.126Z,20.02
2023-01-19T10:08:03.514Z,15.75
2023-01-19T10:10:34.025Z,17.73
2023-01-19T10:13:21.606Z,16.37
2023-01-19T10:16:29.417Z,16.00
2023-01-19T10:19:21.551Z,16.35
2023-01-19T10:21:52.095Z,14.63
2023-01-19T10:24:40.014Z,15.53
2023-01-19T10:27:21.837Z,10.03
2023-01-19T10:29:51.400Z,15.58
2023-01-19T10:32:30.290Z,16.45
2023-01-19T10:35:01.043Z,14.00
2023-01-19T10:37:38.227Z,12.43
2023-01-19T10:40:14.099Z,15.25
2023-01-19T10:42:43.588Z,16.73
2023-01-19T10:45:24.936Z,16.85
2023-01-19T10:47:56.120Z,13.88
2023-01-19T10:50:29.039Z,18.17
2023-01-19T10:53:04.685Z,13.20
2023-01-19T10:55:39.113Z,33.35
2023-01-19T10:58:11.529Z,19.40
2023-01-19T11:00:42.871Z,23.85
2023-01-19T11:03:23.398Z,21.45
2023-01-19T11:05:53.051Z,22.52
2023-01-19T11:08:24.770Z,13.20
2023-01-19T11:11:04.613Z,13.40
2023-01-19T11:13:34.076Z,12.25
2023-01-19T11:16:12.242Z,12.28
2023-01-19T11:18:41.485Z,11.28
2023-01-19T11:21:15.969Z,13.43
2023-01-19T11:23:51.138Z,13.00
2023-01-19T11:26:35.420Z,14.28
2023-01-19T11:29:05.200Z,15.15
2023-01-19T11:31:36.204Z,11.00
2023-01-19T11:34:08.731Z,15.08
2023-01-19T11:36:38.795Z,15.45
2023-01-19T11:39:23.638Z,14.40
2023-01-19T11:41:57.216Z,9.60
2023-01-19T11:44:30.020Z,16.02
2023-01-19T11:47:01.589Z,15.08
2023-01-19T11:49:49.567Z,11.75
2023-01-19T11:52:36.054Z,10.10
2023-01-19T11:55:08.553Z,13.25
2023-01-19T11:57:38.257Z,11.25
2023-01-19T12:00:10.756Z,12.82
2023-01-19T12:02:47.821Z,11.12
2023-01-19T12:05:19.200Z,15.23
2023-01-19T12:07:49.274Z,16.37
2023-01-19T12:10:27.654Z,12.75
2023-01-19T12:12:58.075Z,10.18
2023-01-19T12:15:38.354Z,13.68
2023-01-19T12:18:10.242Z,15.45
2023-01-19T12:20:41.539Z,12.23
2023-01-19T12:23:26.086Z,13.18
2023-01-19T12:26:04.267Z,7.37
2023-01-19T12:28:36.998Z,9.85
2023-01-19T12:31:08.530Z,7.97
2023-01-19T12:33:39.622Z,16.40
2023-01-19T12:36:21.031Z,16.35
2023-01-19T12:38:54.852Z,15.98
2023-01-19T12:41:35.628Z,11.85
2023-01-19T12:44:18.507Z,8.10
2023-01-19T12:46:58.681Z,11.08
2023-01-19T12:49:35.820Z,5.50
2023-01-19T12:52:35.881Z,11.30
2023-01-19T12:55:17.312Z,13.00
2023-01-19T12:57:55.780Z,12.65
2023-01-19T13:00:28.198Z,8.43
2023-01-19T13:03:06.908Z,11.03
2023-01-19T13:05:47.533Z,9.33
2023-01-19T13:08:19.346Z,6.97
2023-01-19T13:11:05.074Z,6.25
2023-01-19T13:13:40.248Z,9.05
2023-01-19T13:16:27.628Z,7.33
2023-01-19T13:19:13.184Z,9.43
2023-01-19T13:21:45.181Z,12.18
2023-01-19T13:24:16.951Z,11.65
2023-01-19T13:26:57.887Z,6.33
2023-01-19T13:29:38.227Z,12.82
2023-01-19T13:32:19.497Z,6.70
2023-01-19T13:34:51.876Z,7.15
2023-01-19T13:37:22.931Z,9.23
2023-01-19T13:39:54.485Z,7.53
2023-01-19T13:42:37.753Z,7.77
2023-01-19T13:45:19.128Z,6.85
2023-01-19T13:47:49.573Z,7.42
2023-01-19T13:50:24.540Z,6.78
2023-01-19T13:52:55.671Z,6.75
2023-01-19T13:55:29.390Z,7.62
2023-01-19T13:57:59.007Z,12.00
2023-01-19T14:00:33.432Z,11.68
2023-01-19T14:03:07.704Z,12.43
2023-01-19T14:05:38.764Z,11.70
2023-01-19T14:08:15.042Z,18.73
2023-01-19T14:10:50.780Z,13.98
2023-01-19T14:13:22.527Z,10.08
2023-01-19T14:15:55.139Z,11.27
2023-01-19T14:18:30.188Z,12.45
2023-01-19T14:21:09.202Z,24.87
2023-01-19T14:23:52.917Z,22.45
2023-01-19T14:26:46.895Z,21.65
2023-01-19T14:29:32.762Z,28.00
2023-01-19T14:32:05.014Z,16.82
2023-01-19T14:34:44.329Z,13.62
2023-01-19T14:37:22.783Z,19.32
2023-01-19T14:40:07.973Z,22.85
2023-01-19T14:42:54.773Z,13.35
2023-01-19T14:45:29.879Z,15.30
2023-01-19T14:48:01.550Z,10.55
2023-01-19T14:53:36.753Z,3.00
2023-01-19T14:56:07.769Z,4.78
2023-01-19T14:58:37.347Z,4.22
2023-01-19T15:01:06.959Z,5.40
2023-01-19T15:03:45.445Z,4.42
2023-01-19T15:06:19.451Z,10.38
2023-01-19T15:08:50.349Z,7.37
2023-01-19T15:11:24.690Z,8.88
2023-01-19T15:13:55.795Z,10.88
2023-01-19T15:16:28.001Z,7.10
2023-01-19T15:18:57.344Z,6.83
2023-01-19T15:21:27.042Z,10.78
2023-01-19T15:23:58.301Z,12.78
2023-01-19T15:26:28.416Z,7.62
2023-01-19T15:28:57.774Z,23.32
2023-01-19T15:31:27.948Z,29.95
2023-01-19T15:33:57.444Z,27.10
2023-01-19T15:36:26.894Z,36.28
2023-01-19T15:38:57.401Z,15.15
2023-01-19T15:41:29.934Z,37.15
2023-01-19T15:44:00.059Z,35.35
2023-01-19T15:46:29.344Z,27.40
2023-01-19T15:48:58.634Z,17.82
2023-01-19T15:51:28.464Z,15.93
2023-01-19T15:53:58.164Z,10.32
2023-01-19T16:00:13.453Z,7.92
2023-01-19T16:02:43.090Z,14.28
2023-01-19T16:05:13.147Z,11.40
2023-01-19T16:07:43.016Z,13.43
2023-01-19T16:10:12.773Z,16.82
2023-01-19T16:12:41.976Z,17.92
2023-01-19T16:15:12.126Z,33.08
2023-01-19T16:17:41.524Z,39.65
2023-01-19T16:20:14.471Z,38.95
2023-01-19T16:22:42.680Z,53.85
2023-01-19T16:25:13.448Z,36.45
2023-01-19T16:27:42.672Z,34.40
2023-01-19T16:30:13.333Z,33.15
2023-01-19T16:32:42.636Z,39.15
2023-01-19T16:35:12.817Z,37.80
2023-01-19T16:37:42.347Z,36.42
2023-01-19T16:40:12.760Z,73.55
2023-01-19T16:42:42.055Z,61.08
2023-01-19T16:45:11.589Z,62.58
2023-01-19T16:47:41.170Z,51.02
2023-01-19T16:50:12.783Z,63.80
2023-01-19T16:52:42.395Z,48.15
2023-01-19T16:55:12.032Z,50.83
2023-01-19T16:57:41.470Z,50.12
2023-01-19T17:00:11.836Z,54.10
2023-01-19T17:02:42.685Z,55.67
2023-01-19T17:05:12.613Z,67.32
2023-01-19T17:07:42.014Z,68.62
2023-01-19T17:10:12.267Z,65.10
2023-01-19T17:12:41.737Z,70.32
2023-01-19T17:15:12.113Z,68.33
2023-01-19T17:17:41.337Z,72.78
2023-01-19T17:20:12.113Z,74.77
2023-01-19T17:22:41.497Z,84.17
2023-01-19T17:25:11.362Z,70.17
2023-01-19T17:27:40.592Z,75.72
2023-01-19T17:30:11.508Z,73.17
2023-01-19T17:32:42.561Z,74.70
2023-01-19T17:35:12.352Z,77.10
2023-01-19T17:37:41.575Z,75.97
2023-01-19T17:40:12.331Z,75.08
2023-01-19T17:42:42.461Z,79.32
2023-01-19T17:45:12.546Z,75.97
2023-01-19T17:47:41.838Z,79.75
2023-01-19T17:50:11.907Z,78.47
2023-01-19T17:52:41.330Z,83.55
2023-01-19T17:55:11.879Z,91.08
2023-01-19T17:57:41.118Z,86.80
2023-01-19T18:00:12.042Z,97.15
2023-01-19T18:02:40.952Z,90.17
2023-01-19T18:05:12.616Z,93.80
2023-01-19T18:07:41.894Z,80.00
2023-01-19T18:10:12.265Z,87.95
2023-01-19T18:12:42.172Z,83.90
2023-01-19T18:15:14.336Z,83.07
2023-01-19T18:17:44.030Z,79.20
2023-01-19T18:20:14.113Z,79.77
2023-01-19T18:22:43.935Z,81.00
2023-01-19T18:25:13.366Z,84.83
2023-01-19T18:27:43.055Z,93.40
2023-01-19T18:30:14.164Z,96.32
2023-01-19T18:32:44.035Z,104.90
2023-01-19T18:35:13.330Z,107.92
2023-01-19T18:37:42.650Z,99.37
2023-01-19T18:40:13.364Z,93.55
2023-01-19T18:42:43.421Z,94.75
2023-01-19T18:45:13.276Z,92.12
2023-01-19T18:47:42.658Z,90.45
2023-01-19T18:50:14.708Z,88.45
2023-01-19T18:52:46.027Z,83.87
2023-01-19T18:55:15.811Z,87.57
2023-01-19T18:57:45.248Z,101.45
2023-01-19T19:00:15.989Z,104.35
2023-01-19T19:02:45.913Z,109.97
2023-01-19T19:05:15.378Z,97.10
2023-01-19T19:07:45.068Z,89.87
2023-01-19T19:10:14.935Z,90.50
2023-01-19T19:12:44.422Z,85.30
2023-01-19T19:15:14.123Z,93.17
2023-01-19T19:17:43.845Z,89.90
2023-01-19T19:20:13.980Z,93.75
2023-01-19T19:22:44.089Z,89.65
2023-01-19T19:25:13.346Z,81.80
2023-01-19T19:27:44.538Z,94.17
2023-01-19T19:30:15.019Z,146.00
2023-01-19T19:32:44.479Z,111.17
2023-01-19T19:35:15.302Z,94.35
2023-01-19T19:37:45.401Z,90.12
2023-01-19T19:40:15.050Z,86.02
2023-01-19T19:42:44.398Z,86.05
2023-01-19T19:45:14.958Z,91.28
2023-01-19T19:47:44.785Z,94.15
2023-01-19T19:50:14.777Z,100.33
2023-01-19T19:52:44.657Z,106.97
2023-01-19T19:55:14.230Z,95.50
2023-01-19T19:57:43.514Z,91.47
2023-01-19T20:00:13.490Z,91.00
2023-01-19T20:02:43.329Z,85.92
2023-01-19T20:05:13.426Z,90.15
2023-01-19T20:07:48.285Z,95.65
2023-01-19T20:10:18.162Z,82.67
2023-01-19T20:12:47.724Z,85.47
2023-01-19T20:15:17.012Z,88.60
2023-01-19T20:17:46.618Z,82.65
2023-01-19T20:20:15.988Z,88.85
2023-01-19T20:22:45.276Z,98.95
2023-01-19T20:25:16.519Z,77.55
2023-01-19T20:27:47.253Z,96.67
2023-01-19T20:30:18.125Z,49.77
2023-01-19T20:32:48.063Z,41.45
2023-01-19T20:35:17.516Z,37.10
2023-01-19T20:37:46.959Z,26.40
2023-01-19T20:40:17.107Z,28.17
2023-01-19T20:42:46.837Z,46.45
2023-01-19T20:45:17.775Z,60.90
2023-01-19T20:47:47.485Z,66.67
2023-01-19T20:50:16.746Z,75.22
2023-01-19T20:52:46.383Z,59.13
2023-01-19T20:55:15.917Z,42.33
2023-01-19T20:57:45.152Z,35.03
2023-01-19T21:00:14.808Z,64.87
2023-01-19T21:02:44.119Z,49.25
2023-01-19T21:05:14.016Z,36.88
2023-01-19T21:07:43.616Z,38.13
2023-01-19T21:10:12.931Z,48.90
2023-01-19T21:12:42.518Z,51.25
2023-01-19T21:15:12.701Z,50.40
2023-01-19T21:17:44.984Z,61.40
2023-01-19T21:20:13.963Z,60.60
2023-01-19T21:22:43.445Z,110.72
2023-01-19T21:25:13.100Z,67.47
2023-01-19T21:27:42.478Z,70.83
2023-01-19T21:30:12.349Z,65.10
2023-01-19T21:32:41.952Z,63.05
2023-01-19T21:35:11.814Z,57.62
2023-01-19T21:37:41.541Z,60.92
2023-01-19T21:40:12.439Z,67.87
2023-01-19T21:42:41.918Z,61.73
2023-01-19T21:45:11.631Z,64.50
2023-01-19T21:47:41.240Z,58.95
2023-01-19T21:50:11.350Z,57.15
2023-01-19T21:52:40.879Z,51.88
2023-01-19T21:55:10.380Z,63.20
2023-01-19T21:57:40.049Z,46.83
2023-01-19T22:00:10.175Z,49.30
2023-01-19T22:02:39.661Z,52.17
2023-01-19T22:05:09.617Z,44.33
2023-01-19T22:07:39.224Z,42.35
2023-01-19T22:10:10.197Z,41.75
2023-01-19T22:12:40.333Z,41.85
2023-01-19T22:15:10.859Z,41.60
2023-01-19T22:17:40.144Z,39.67
2023-01-19T22:20:10.690Z,36.58
2023-01-19T22:22:39.888Z,34.58
2023-01-19T22:25:09.581Z,38.58
2023-01-19T22:27:38.877Z,39.00
2023-01-19T22:30:09.184Z,38.78
2023-01-19T22:32:38.382Z,24.23
2023-01-19T22:35:07.911Z,21.30
2023-01-19T22:37:37.690Z,21.07
2023-01-19T22:40:07.791Z,21.15
2023-01-19T22:42:36.997Z,20.43
2023-01-19T22:45:06.891Z,17.75
2023-01-19T22:47:36.157Z,17.52
2023-01-19T22:50:05.918Z,21.70
2023-01-19T22:52:35.237Z,13.78
2023-01-19T22:55:04.941Z,17.00
2023-01-19T22:57:36.179Z,15.43
2023-01-19T23:00:08.803Z,13.08
2023-01-19T23:02:38.039Z,15.90
2023-01-19T23:05:08.488Z,20.75
2023-01-19T23:07:37.905Z,20.17
2023-01-19T23:10:08.535Z,27.45
2023-01-19T23:12:37.768Z,23.27
2023-01-19T23:15:08.460Z,25.50
2023-01-19T23:17:39.899Z,32.85
2023-01-19T23:20:10.626Z,29.00
2023-01-19T23:22:40.396Z,37.28
2023-01-19T23:25:10.658Z,40.58
2023-01-19T23:27:40.306Z,39.95
2023-01-19T23:30:10.918Z,40.52
2023-01-19T23:32:40.425Z,47.10
2023-01-19T23:35:11.059Z,47.75
2023-01-19T23:37:40.347Z,51.53
2023-01-19T23:40:11.254Z,48.50
2023-01-19T23:42:40.479Z,51.15
2023-01-19T23:45:10.699Z,54.40
2023-01-19T23:47:41.796Z,54.23
2023-01-19T23:50:12.076Z,62.03
2023-01-19T23:52:41.365Z,68.20
2023-01-19T23:55:11.441Z,66.12
2023-01-19T23:57:40.945Z,68.97
